Nippon Maru — 3FDA7 — position and weather

sailwx.info

Track history (hours):
 
Tides and Currents Weather Stations Pressure Air Temp Water Temp Dewpoint Dewpoint Depression Visibility Wind Speed Wind Dir Waves Ship Positions

Nippon Maru

Last reported at 2015-Mar-03 17:27 UTC. Time now 2015-Mar-05 10:27 UTC.
Position N 08°27' E 122°33'.

Length 190 m; draft 6.2 m.

Type: Cargo ship. MMSI: 353814000.

Date/timePositionNaut miles runAvg speedWind from/ knotsBaromVisibWave heightAir tempDewpointWater temp
2015-Mar-03 17:27N 08°27' E 122°33'1513.8
2015-Mar-03 16:22N 08°36' E 122°45'1214.7
2015-Mar-03 15:34N 08°44' E 122°54'1515.3
2015-Mar-03 14:33N 08°54' E 123°06'1515.4
2015-Mar-03 13:34N 09°03' E 123°18'1515.1
2015-Mar-03 12:34N 09°17' E 123°25'1514.7
2015-Mar-03 11:33N 09°31' E 123°30'1413.9
2015-Mar-03 10:33N 09°43' E 123°36'1414.1
2015-Mar-03 09:32N 09°57' E 123°41'  
Track history (hours):
 
Tides and Currents Weather Stations Pressure Air Temp Water Temp Dewpoint Dewpoint Depression Visibility Wind Speed Wind Dir Waves Ship Positions

Nippon Maru

Last reported at 2015-Mar-03 17:27 UTC. Time now 2015-Mar-05 10:27 UTC.
Position N 08°27' E 122°33'.

Length 190 m; draft 6.2 m.

Type: Cargo ship. MMSI: 353814000.

Date/timePositionNaut miles runAvg speedWind from/ knotsBaromVisibWave heightAir tempDewpointWater temp
2015-Mar-03 17:27N 08°27' E 122°33'1513.8
2015-Mar-03 16:22N 08°36' E 122°45'1214.7
2015-Mar-03 15:34N 08°44' E 122°54'1515.3
2015-Mar-03 14:33N 08°54' E 123°06'1515.4
2015-Mar-03 13:34N 09°03' E 123°18'1515.1
2015-Mar-03 12:34N 09°17' E 123°25'1514.7
2015-Mar-03 11:33N 09°31' E 123°30'1413.9
2015-Mar-03 10:33N 09°43' E 123°36'1414.1
2015-Mar-03 09:32N 09°57' E 123°41'  

Dump ship's entire track history